Time;durP1;ratioP1;P1;durP2;ratioP2;P2;SDS_P1;SDS_P2;PMS_P1;PMS_P2;Temp;Humidity;BMP_temperature;BMP_pressure;BME280_temperature;BME280_humidity;BME280_pressure;Samples;Min_cycle;Max_cycle;Signal;HPM_P1;HPM_P2
2023/01/23 00:01:25;;;;;;;;;45.25;40.00;;;;;6.05;100.00;102814.75;5101524;27;45314;-82
2023/01/23 00:03:51;;;;;;;;;44.50;39.25;;;;;6.00;100.00;102810.69;5101745;27;45473;-83
2023/01/23 00:06:17;;;;;;;;;45.00;38.50;;;;;6.03;100.00;102821.91;5101682;27;45369;-82
2023/01/23 00:08:44;;;;;;;;;45.50;39.00;;;;;5.82;100.00;102816.13;5099974;27;47535;-82
2023/01/23 00:11:13;;;;;;;;;38.25;36.25;;;;;5.78;100.00;102815.44;5101508;27;45308;-82
2023/01/23 00:13:38;;;;;;;;;34.25;31.75;;;;;5.92;100.00;102817.28;5101785;27;45435;-82
2023/01/23 00:16:10;;;;;;;;;50.75;42.50;;;;;5.97;100.00;102818.78;5100726;27;45537;-82
2023/01/23 00:18:35;;;;;;;;;43.50;40.25;;;;;6.04;100.00;102817.50;5101612;27;46604;-82
2023/01/23 00:21:06;;;;;;;;;50.25;42.00;;;;;6.04;100.00;102821.00;5083096;27;45398;-82
2023/01/23 00:23:32;;;;;;;;;49.75;41.00;;;;;5.95;100.00;102821.50;5101542;27;45305;-82
2023/01/23 00:26:05;;;;;;;;;52.25;40.00;;;;;5.92;100.00;102812.00;5101424;27;45438;-81
2023/01/23 00:28:31;;;;;;;;;47.25;39.50;;;;;5.88;100.00;102810.50;5101128;27;45426;-82
2023/01/23 00:31:17;;;;;;;;;39.00;34.25;;;;;5.91;100.00;102806.81;5101468;27;45343;-83
2023/01/23 00:33:43;;;;;;;;;40.25;37.50;;;;;5.83;100.00;102807.25;5101294;27;45369;-82
2023/01/23 00:36:10;;;;;;;;;44.50;35.75;;;;;5.78;100.00;102811.97;5101423;27;45330;-82
2023/01/23 00:38:35;;;;;;;;;53.75;42.75;;;;;5.81;100.00;102817.09;5101200;27;45387;-83
2023/01/23 00:41:01;;;;;;;;;50.00;39.75;;;;;5.80;100.00;102818.84;5101209;27;45406;-82
2023/01/23 00:43:27;;;;;;;;;48.00;40.00;;;;;5.82;100.00;102831.97;5101185;27;45315;-83
2023/01/23 00:45:52;;;;;;;;;44.75;38.25;;;;;5.79;100.00;102817.16;5082484;27;46000;-82
2023/01/23 00:48:18;;;;;;;;;55.00;41.75;;;;;5.80;100.00;102824.13;5100678;27;46026;-82
2023/01/23 00:50:43;;;;;;;;;46.50;40.25;;;;;5.85;100.00;102823.88;5101193;27;45235;-82
2023/01/23 00:53:09;;;;;;;;;44.50;39.00;;;;;5.87;100.00;102821.97;5101178;27;45521;-82
2023/01/23 00:55:34;;;;;;;;;49.75;41.25;;;;;5.89;100.00;102821.88;5082423;27;46030;-82
2023/01/23 00:58:00;;;;;;;;;42.25;37.00;;;;;5.92;100.00;102832.25;5100847;27;45398;-82
2023/01/23 01:00:25;;;;;;;;;35.00;31.50;;;;;5.90;100.00;102823.59;5100756;27;45357;-83
2023/01/23 01:02:50;;;;;;;;;47.25;40.25;;;;;5.89;100.00;102817.47;5101173;27;45406;-82
2023/01/23 01:05:17;;;;;;;;;42.50;36.25;;;;;5.94;100.00;102830.38;5100969;27;45342;-82
2023/01/23 01:07:43;;;;;;;;;51.25;41.50;;;;;5.94;100.00;102820.69;5100680;27;45662;-81
2023/01/23 01:10:10;;;;;;;;;43.75;37.25;;;;;5.88;100.00;102815.75;5100565;27;45301;-81
2023/01/23 01:12:35;;;;;;;;;44.50;39.25;;;;;5.86;100.00;102806.22;5100504;27;45260;-82
2023/01/23 01:15:01;;;;;;;;;48.00;40.00;;;;;5.85;100.00;102807.16;5082117;27;47471;-83
2023/01/23 01:17:26;;;;;;;;;55.25;42.25;;;;;5.82;100.00;102805.56;5100490;27;45948;-82
2023/01/23 01:19:52;;;;;;;;;45.75;37.25;;;;;5.79;100.00;102805.75;5082370;27;45219;-81
2023/01/23 01:22:17;;;;;;;;;47.25;39.00;;;;;5.79;100.00;102811.88;5100652;27;45164;-82
2023/01/23 01:24:42;;;;;;;;;48.75;41.50;;;;;5.83;100.00;102820.47;5100800;27;45510;-82
2023/01/23 01:27:08;;;;;;;;;48.00;39.00;;;;;5.77;100.00;102808.47;5099347;27;46427;-82
2023/01/23 01:29:33;;;;;;;;;47.25;40.50;;;;;5.79;100.00;102814.53;5081763;27;45212;-82
2023/01/23 01:31:59;;;;;;;;;46.25;39.75;;;;;5.85;100.00;102807.16;5100267;27;45217;-82
2023/01/23 01:34:24;;;;;;;;;55.25;44.00;;;;;5.86;100.00;102807.06;5100756;27;45432;-81
2023/01/23 01:36:50;;;;;;;;;45.25;36.75;;;;;5.90;100.00;102800.66;5100074;27;45440;-82
2023/01/23 01:39:16;;;;;;;;;53.00;41.00;;;;;5.91;100.00;102799.75;5081815;27;45381;-81
2023/01/23 01:41:41;;;;;;;;;53.75;44.00;;;;;5.98;100.00;102810.78;5081934;27;45346;-82
2023/01/23 01:44:14;;;;;;;;;48.00;41.00;;;;;5.96;100.00;102806.53;5100153;27;45372;-82
2023/01/23 01:46:39;;;;;;;;;52.75;42.75;;;;;5.89;100.00;102798.97;5081670;27;47339;-82
2023/01/23 01:49:10;;;;;;;;;47.25;39.50;;;;;5.90;100.00;102795.38;5081779;27;45654;-82
2023/01/23 01:51:44;;;;;;;;;54.50;44.50;;;;;5.97;100.00;102802.94;5100467;27;45415;-82
2023/01/23 01:54:14;;;;;;;;;54.00;43.25;;;;;5.98;100.00;102791.47;5100083;27;45206;-83
2023/01/23 01:57:05;;;;;;;;;54.75;42.75;;;;;5.97;100.00;102790.59;5100155;27;46406;-82
2023/01/23 01:59:35;;;;;;;;;52.75;42.75;;;;;5.98;100.00;102800.22;5081104;27;45435;-82
2023/01/23 02:02:14;;;;;;;;;48.25;40.25;;;;;5.98;100.00;102797.56;5100305;27;45376;-82
2023/01/23 02:04:46;;;;;;;;;48.50;39.50;;;;;5.99;100.00;102801.06;5099683;27;45393;-81
2023/01/23 02:07:22;;;;;;;;;54.75;42.75;;;;;5.98;100.00;102791.47;5081207;27;47330;-82
2023/01/23 02:09:48;;;;;;;;;51.00;40.75;;;;;6.01;100.00;102796.53;5099961;27;45355;-82
2023/01/23 02:12:14;;;;;;;;;52.50;43.25;;;;;6.00;100.00;102794.84;5099984;27;45348;-83
2023/01/23 02:14:40;;;;;;;;;44.75;40.50;;;;;5.98;100.00;102796.75;5099266;27;45486;-82
2023/01/23 02:17:06;;;;;;;;;57.25;44.75;;;;;5.97;100.00;102787.97;5081230;27;47206;-82
2023/01/23 02:20:13;;;;;;;;;47.50;41.75;;;;;6.01;100.00;102794.75;5099730;27;45274;-82
2023/01/23 02:23:09;;;;;;;;;46.75;40.50;;;;;5.98;100.00;102788.81;5099942;27;45432;-82
2023/01/23 02:25:44;;;;;;;;;46.75;39.00;;;;;5.93;100.00;102782.00;5099159;27;45369;-82
2023/01/23 02:28:14;;;;;;;;;49.25;40.00;;;;;5.91;100.00;102777.78;5099464;27;45457;-82
2023/01/23 02:30:42;;;;;;;;;53.50;43.00;;;;;5.95;100.00;102795.13;5068331;27;45471;-82
2023/01/23 02:33:08;;;;;;;;;52.50;40.25;;;;;5.97;100.00;102792.38;5081192;27;45338;-83
2023/01/23 02:35:35;;;;;;;;;61.00;46.00;;;;;5.92;100.00;102780.31;5081105;27;46318;-82
2023/01/23 02:38:04;;;;;;;;;50.25;39.75;;;;;5.94;100.00;102782.88;5099780;27;45438;-83
2023/01/23 02:40:35;;;;;;;;;45.00;39.75;;;;;5.96;100.00;102788.06;5103206;27;45415;-82
2023/01/23 02:43:05;;;;;;;;;52.00;42.50;;;;;5.97;100.00;102787.09;5103022;27;45404;-82
2023/01/23 02:45:31;;;;;;;;;52.75;43.00;;;;;5.99;100.00;102782.59;5102914;27;45135;-82
2023/01/23 02:47:57;;;;;;;;;49.75;40.75;;;;;6.00;100.00;102792.19;5102789;27;45272;-82
2023/01/23 02:50:22;;;;;;;;;43.50;39.25;;;;;5.99;100.00;102791.34;5084727;27;45633;-82
2023/01/23 02:52:49;;;;;;;;;52.75;42.00;;;;;5.97;100.00;102787.97;5103162;27;45473;-82
2023/01/23 02:55:18;;;;;;;;;35.25;31.25;;;;;5.98;100.00;102794.09;5103092;27;46208;-82
2023/01/23 02:57:44;;;;;;;;;47.25;39.25;;;;;5.99;100.00;102801.06;5102334;27;46069;-82
2023/01/23 03:00:19;;;;;;;;;56.25;42.75;;;;;5.97;100.00;102795.03;5102794;27;45270;-82
2023/01/23 03:02:49;;;;;;;;;50.25;42.25;;;;;5.96;100.00;102790.69;5102803;27;45291;-82
2023/01/23 03:05:16;;;;;;;;;37.25;34.25;;;;;5.97;100.00;102792.38;5102655;27;45490;-81
2023/01/23 03:07:42;;;;;;;;;46.25;38.25;;;;;5.90;100.00;102790.09;5102362;27;45400;-82
2023/01/23 03:10:08;;;;;;;;;55.25;41.00;;;;;5.91;100.00;102788.34;5102657;27;45303;-83
2023/01/23 03:12:34;;;;;;;;;51.50;40.25;;;;;5.89;100.00;102795.47;5102555;27;45307;-83
2023/01/23 03:15:00;;;;;;;;;58.00;46.00;;;;;5.83;100.00;102783.50;5102337;27;45262;-82
2023/01/23 03:17:27;;;;;;;;;53.75;43.75;;;;;5.81;100.00;102793.31;5102451;27;45273;-83
2023/01/23 03:19:53;;;;;;;;;47.00;39.25;;;;;5.74;100.00;102790.19;5084414;27;45372;-82
2023/01/23 03:22:19;;;;;;;;;51.50;44.00;;;;;5.75;100.00;102791.06;5102392;27;45380;-81
2023/01/23 03:24:44;;;;;;;;;50.50;41.00;;;;;5.72;100.00;102799.16;5084255;27;47465;-82
2023/01/23 03:27:09;;;;;;;;;56.00;43.75;;;;;5.68;100.00;102794.03;5102090;27;45463;-84
2023/01/23 03:32:19;;;;;;;;;52.75;41.00;;;;;5.68;100.00;102787.91;5102884;27;45417;-82
2023/01/23 03:34:45;;;;;;;;;46.50;40.75;;;;;5.67;100.00;102792.38;5083490;27;46175;-82
2023/01/23 03:37:11;;;;;;;;;48.25;39.25;;;;;5.72;100.00;102789.41;5083789;27;47305;-82
2023/01/23 03:42:22;;;;;;;;;38.25;29.75;;;;;5.67;100.00;102796.78;5102370;27;45310;-82
2023/01/23 03:44:48;;;;;;;;;54.75;42.50;;;;;5.72;100.00;102793.88;5083338;27;47084;-82
2023/01/23 03:47:13;;;;;;;;;53.75;43.25;;;;;5.69;100.00;102790.47;5101906;27;45498;-82
2023/01/23 03:49:39;;;;;;;;;52.00;40.50;;;;;5.74;100.00;102797.25;5082501;27;45833;-82
2023/01/23 03:52:05;;;;;;;;;59.75;46.75;;;;;5.72;100.00;102794.69;5093930;27;45609;-82
2023/01/23 03:54:30;;;;;;;;;46.25;39.75;;;;;5.73;100.00;102796.41;5102127;27;45685;-81
2023/01/23 03:56:55;;;;;;;;;43.25;38.00;;;;;5.75;100.00;102797.16;5102294;27;45184;-82
2023/01/23 03:59:21;;;;;;;;;56.50;44.75;;;;;5.80;100.00;102816.22;5101821;27;45200;-82
2023/01/23 04:01:49;;;;;;;;;39.50;37.00;;;;;5.84;100.00;102818.69;5083801;27;45316;-81
2023/01/23 04:04:14;;;;;;;;;48.75;42.25;;;;;5.91;100.00;102810.31;5083208;27;47184;-82
2023/01/23 04:06:40;;;;;;;;;45.75;40.00;;;;;5.88;100.00;102802.56;5101370;27;46342;-81
2023/01/23 04:09:05;;;;;;;;;64.00;46.75;;;;;5.91;100.00;102799.75;5101588;27;45295;-82
2023/01/23 04:11:30;;;;;;;;;52.00;44.50;;;;;5.92;100.00;102804.06;5102026;27;45349;-82
2023/01/23 04:13:56;;;;;;;;;46.75;41.00;;;;;5.93;100.00;102804.94;5101356;27;45500;-82
2023/01/23 04:16:22;;;;;;;;;53.00;42.75;;;;;5.96;100.00;102801.25;5101618;27;46041;-82
2023/01/23 04:18:48;;;;;;;;;50.00;43.00;;;;;5.90;100.00;102795.38;5101492;27;45429;-82
2023/01/23 04:21:14;;;;;;;;;44.75;39.50;;;;;5.98;100.00;102796.75;5101514;27;45304;-82
2023/01/23 04:23:39;;;;;;;;;53.00;41.25;;;;;5.97;100.00;102802.94;5101456;27;45511;-82
2023/01/23 04:26:04;;;;;;;;;54.50;44.00;;;;;5.97;100.00;102801.16;5101644;27;46435;-82
2023/01/23 04:28:30;;;;;;;;;43.25;39.75;;;;;5.94;100.00;102794.28;5101589;27;45255;-82
2023/01/23 04:30:55;;;;;;;;;55.75;43.50;;;;;6.00;100.00;102808.91;5101415;27;45204;-83
2023/01/23 04:33:20;;;;;;;;;46.00;37.75;;;;;5.98;100.00;102802.84;5100198;27;46757;-83
2023/01/23 04:35:56;;;;;;;;;56.50;43.25;;;;;6.02;100.00;102801.72;5101506;27;45248;-82
2023/01/23 04:38:23;;;;;;;;;47.25;37.50;;;;;6.01;100.00;102804.44;5083012;27;45260;-82
2023/01/23 04:40:49;;;;;;;;;44.25;39.50;;;;;5.91;100.00;102790.97;5101534;27;45429;-82
2023/01/23 04:43:14;;;;;;;;;49.50;41.00;;;;;5.99;100.00;102811.63;5101067;27;45385;-81
2023/01/23 04:45:40;;;;;;;;;48.75;41.25;;;;;5.96;100.00;102809.19;5082532;27;47040;-82
2023/01/23 04:48:05;;;;;;;;;30.50;24.25;;;;;5.89;100.00;102809.53;5101083;27;45414;-82
2023/01/23 04:50:32;;;;;;;;;45.75;39.00;;;;;5.93;100.00;102818.97;5089702;27;45379;-82
2023/01/23 04:52:57;;;;;;;;;29.00;25.75;;;;;5.98;100.00;102816.06;5097671;27;45513;-82
2023/01/23 04:55:23;;;;;;;;;54.75;42.50;;;;;5.96;100.00;102819.72;5100941;27;45319;-82
2023/01/23 04:57:49;;;;;;;;;45.25;39.25;;;;;5.93;100.00;102808.41;5082453;27;45346;-82
2023/01/23 05:00:15;;;;;;;;;41.75;38.25;;;;;5.92;100.00;102814.63;5101060;27;45347;-83
2023/01/23 05:02:40;;;;;;;;;52.25;41.75;;;;;5.94;100.00;102817.19;5082286;27;47007;-83
2023/01/23 05:05:06;;;;;;;;;47.50;38.00;;;;;5.89;100.00;102809.53;5082312;27;47264;-82
2023/01/23 05:07:31;;;;;;;;;44.50;40.00;;;;;5.92;100.00;102821.69;5082275;27;45540;-82
2023/01/23 05:09:57;;;;;;;;;47.75;38.75;;;;;5.89;100.00;102816.59;5101234;27;45299;-82
2023/01/23 05:12:22;;;;;;;;;46.25;38.25;;;;;5.89;100.00;102817.47;5100805;27;45452;-81
2023/01/23 05:14:47;;;;;;;;;45.25;39.50;;;;;5.92;100.00;102824.34;5082118;27;47369;-81
2023/01/23 05:17:12;;;;;;;;;49.75;41.00;;;;;5.95;100.00;102826.78;5082265;27;45333;-83
2023/01/23 05:19:38;;;;;;;;;53.75;42.50;;;;;5.95;100.00;102826.78;5100998;27;45266;-82
2023/01/23 05:22:03;;;;;;;;;46.75;40.25;;;;;6.27;100.00;102824.03;5082163;27;46096;-82
2023/01/23 05:24:28;;;;;;;;;51.00;39.25;;;;;6.31;100.00;102822.91;5082404;27;48090;-82
2023/01/23 05:26:54;;;;;;;;;51.50;40.50;;;;;6.39;100.00;102832.13;5100520;27;45266;-82
2023/01/23 05:29:19;;;;;;;;;39.00;36.75;;;;;6.45;100.00;102834.41;5082323;27;45517;-82
2023/01/23 05:31:44;;;;;;;;;45.75;40.25;;;;;6.47;100.00;102842.22;5100368;27;45395;-82
2023/01/23 05:34:10;;;;;;;;;41.50;38.50;;;;;6.10;100.00;102830.34;5100658;27;46147;-82
2023/01/23 05:36:35;;;;;;;;;52.00;41.00;;;;;6.30;100.00;102830.91;5100317;27;45245;-82
2023/01/23 05:39:00;;;;;;;;;55.00;44.75;;;;;6.02;100.00;102827.28;5100537;27;45387;-82
2023/01/23 05:41:26;;;;;;;;;45.00;38.00;;;;;5.91;100.00;102822.66;5100091;27;45386;-82
2023/01/23 05:43:51;;;;;;;;;44.25;38.75;;;;;5.84;100.00;102827.47;5100146;27;46247;-83
2023/01/23 05:46:16;;;;;;;;;45.25;36.50;;;;;5.90;100.00;102836.78;5081537;27;45439;-82
2023/01/23 05:48:42;;;;;;;;;40.25;33.75;;;;;5.85;100.00;102825.66;5100646;27;45272;-82
2023/01/23 05:51:07;;;;;;;;;39.50;37.50;;;;;5.88;100.00;102834.25;5081958;27;47108;-82
2023/01/23 05:53:33;;;;;;;;;44.75;39.00;;;;;5.83;100.00;102833.66;5100299;27;46460;-82
2023/01/23 05:55:58;;;;;;;;;51.75;40.00;;;;;5.82;100.00;102831.97;5081565;27;45384;-82
2023/01/23 05:58:23;;;;;;;;;41.50;33.00;;;;;5.87;100.00;102836.97;5100306;27;45343;-82
2023/01/23 06:00:49;;;;;;;;;47.00;38.25;;;;;5.89;100.00;102854.41;5099662;27;45331;-81
2023/01/23 06:03:14;;;;;;;;;39.25;34.00;;;;;5.89;100.00;102853.56;5081603;27;47077;-82
2023/01/23 06:05:40;;;;;;;;;43.75;39.25;;;;;5.94;100.00;102862.91;5100029;27;45257;-82
2023/01/23 06:08:05;;;;;;;;;36.75;31.75;;;;;5.87;100.00;102848.34;5100102;27;45253;-83
2023/01/23 06:10:31;;;;;;;;;46.50;37.00;;;;;5.93;100.00;102858.56;5099707;27;45214;-82
2023/01/23 06:12:56;;;;;;;;;50.00;40.50;;;;;5.92;100.00;102856.00;5099150;27;45292;-83
2023/01/23 06:15:22;;;;;;;;;45.00;35.75;;;;;5.96;100.00;102854.91;5099822;27;45221;-82
2023/01/23 06:17:47;;;;;;;;;42.25;35.25;;;;;5.93;100.00;102863.84;5100177;27;45325;-82
2023/01/23 06:20:13;;;;;;;;;43.25;39.25;;;;;5.87;100.00;102851.00;5099703;27;45487;-82
2023/01/23 06:22:38;;;;;;;;;47.25;38.75;;;;;5.88;100.00;102859.78;5081384;27;48236;-82
2023/01/23 06:25:04;;;;;;;;;50.50;39.00;;;;;5.90;100.00;102858.75;5081277;27;45197;-82
2023/01/23 06:27:30;;;;;;;;;35.75;32.50;;;;;5.90;100.00;102856.09;5100063;27;45614;-83
2023/01/23 06:29:56;;;;;;;;;43.75;37.25;;;;;5.88;100.00;102860.63;5099225;27;45390;-82
2023/01/23 06:32:22;;;;;;;;;47.00;35.75;;;;;5.87;100.00;102866.84;5081290;27;47130;-83
2023/01/23 06:34:48;;;;;;;;;41.00;35.00;;;;;5.86;100.00;102866.91;5081195;27;45869;-82
2023/01/23 06:37:13;;;;;;;;;35.75;30.00;;;;;5.83;100.00;102860.03;5081166;27;45326;-82
2023/01/23 06:39:39;;;;;;;;;45.75;39.75;;;;;5.88;100.00;102871.19;5099478;27;45529;-83
2023/01/23 06:42:08;;;;;;;;;51.75;39.75;;;;;5.89;100.00;102874.66;5099405;27;45550;-82
2023/01/23 06:44:34;;;;;;;;;42.25;36.00;;;;;5.88;100.00;102872.97;5099238;27;45349;-82
2023/01/23 06:46:59;;;;;;;;;40.00;37.50;;;;;5.87;100.00;102872.13;5081192;27;45435;-82
2023/01/23 06:49:24;;;;;;;;;44.25;37.75;;;;;5.85;100.00;102863.44;5099477;27;45441;-83
2023/01/23 06:51:50;;;;;;;;;40.50;33.00;;;;;5.91;100.00;102878.94;5076495;27;47244;-82
2023/01/23 06:54:15;;;;;;;;;35.25;30.00;;;;;5.89;100.00;102879.94;5096361;27;45351;-83
2023/01/23 06:56:40;;;;;;;;;36.25;29.75;;;;;5.85;100.00;102878.44;5080594;27;45327;-83
2023/01/23 06:59:05;;;;;;;;;36.75;35.25;;;;;5.81;100.00;102864.59;5080977;27;47442;-82
2023/01/23 07:01:31;;;;;;;;;43.75;37.50;;;;;5.86;100.00;102875.69;5098887;27;45396;-82
2023/01/23 07:03:56;;;;;;;;;37.75;34.75;;;;;5.86;100.00;102872.19;5098926;27;45380;-84
2023/01/23 07:06:22;;;;;;;;;43.25;38.75;;;;;5.82;100.00;102866.28;5080702;27;45401;-82
2023/01/23 07:08:48;;;;;;;;;46.25;35.75;;;;;5.88;100.00;102881.75;5099353;27;45319;-84
2023/01/23 07:11:14;;;;;;;;;35.25;31.25;;;;;5.87;100.00;102876.56;5080700;27;48277;-82
2023/01/23 07:13:39;;;;;;;;;42.25;38.75;;;;;5.82;100.00;102884.75;5098572;27;45254;-81
2023/01/23 07:16:05;;;;;;;;;36.00;30.25;;;;;5.80;100.00;102881.34;5081205;27;45234;-82
2023/01/23 07:18:32;;;;;;;;;42.75;39.25;;;;;5.77;100.00;102884.16;5099080;27;45422;-82
2023/01/23 07:20:57;;;;;;;;;43.75;38.25;;;;;5.81;100.00;102886.53;5080836;27;47327;-85
2023/01/23 07:23:22;;;;;;;;;39.00;34.50;;;;;5.84;100.00;102888.16;5092362;27;45265;-84
2023/01/23 07:25:48;;;;;;;;;41.00;37.00;;;;;5.79;100.00;102887.56;5088849;27;45323;-84
2023/01/23 07:28:13;;;;;;;;;38.00;35.25;;;;;5.77;100.00;102892.06;5102529;27;45531;-84
2023/01/23 07:30:39;;;;;;;;;48.00;36.75;;;;;5.76;100.00;102896.50;5102403;27;45334;-85
2023/01/23 07:33:05;;;;;;;;;40.25;34.25;;;;;5.77;100.00;102900.84;5084405;27;45760;-85
2023/01/23 07:35:30;;;;;;;;;21.75;18.75;;;;;5.84;100.00;102911.06;5102745;27;45545;-84
2023/01/23 07:37:56;;;;;;;;;44.25;39.00;;;;;5.80;100.00;102905.94;5102453;27;45420;-85
2023/01/23 07:40:21;;;;;;;;;42.25;36.00;;;;;5.86;100.00;102903.88;5083738;27;47190;-84
2023/01/23 07:42:47;;;;;;;;;35.50;31.75;;;;;5.85;100.00;102908.31;5102400;27;45315;-84
2023/01/23 07:45:12;;;;;;;;;42.75;37.00;;;;;5.91;100.00;102915.88;5102433;27;45361;-79
2023/01/23 07:47:38;;;;;;;;;33.00;30.00;;;;;5.96;100.00;102917.41;5100247;27;45948;-80
2023/01/23 07:50:13;;;;;;;;;51.75;38.00;;;;;5.91;100.00;102907.97;5097291;27;46419;-78
2023/01/23 07:52:38;;;;;;;;;44.50;37.00;;;;;5.88;100.00;102916.06;5104878;27;45385;-79
2023/01/23 07:55:05;;;;;;;;;45.75;39.50;;;;;5.87;100.00;102898.50;5106737;27;45440;-78
2023/01/23 07:57:30;;;;;;;;;40.50;36.00;;;;;5.92;100.00;102901.75;5102724;27;46537;-80
2023/01/23 07:59:55;;;;;;;;;38.25;32.50;;;;;5.95;100.00;102905.97;5101280;27;45332;-79
2023/01/23 08:02:21;;;;;;;;;44.75;37.50;;;;;5.95;100.00;102903.34;5102109;27;45454;-77
2023/01/23 08:04:46;;;;;;;;;45.25;39.25;;;;;5.99;100.00;102898.75;5101654;27;45265;-79
2023/01/23 08:07:11;;;;;;;;;43.00;36.50;;;;;5.93;100.00;102892.88;5097034;27;45255;-82
2023/01/23 08:09:37;;;;;;;;;53.50;42.50;;;;;5.94;100.00;102899.88;5096602;27;46196;-81
2023/01/23 08:12:03;;;;;;;;;46.75;38.25;;;;;6.00;100.00;102900.44;5102169;27;44735;-80
2023/01/23 08:14:29;;;;;;;;;46.00;37.75;;;;;5.98;100.00;102891.78;5103375;27;45345;-83
2023/01/23 08:16:54;;;;;;;;;38.50;34.25;;;;;6.00;100.00;102888.09;5101899;27;45289;-82
2023/01/23 08:19:20;;;;;;;;;45.50;40.00;;;;;6.03;100.00;102895.84;5100205;27;46085;-79
2023/01/23 08:21:46;;;;;;;;;74.25;57.50;;;;;6.28;100.00;102894.38;5079252;27;45382;-83
2023/01/23 08:24:12;;;;;;;;;58.75;46.75;;;;;6.46;100.00;102888.09;5095513;27;45402;-82
2023/01/23 08:26:39;;;;;;;;;40.75;34.75;;;;;6.17;100.00;102894.19;5106141;27;45431;-81
2023/01/23 08:29:04;;;;;;;;;52.00;41.00;;;;;6.11;100.00;102886.63;5102797;27;45358;-80
2023/01/23 08:31:29;;;;;;;;;46.25;40.25;;;;;6.13;100.00;102893.50;5101254;27;45346;-81
2023/01/23 08:33:55;;;;;;;;;52.00;40.50;;;;;6.15;100.00;102899.56;5102296;27;45288;-80
2023/01/23 08:36:21;;;;;;;;;80.25;61.25;;;;;6.18;100.00;102895.88;5101237;27;45264;-80
2023/01/23 08:38:47;;;;;;;;;56.75;44.00;;;;;6.22;100.00;102896.56;5102150;27;46336;-82
2023/01/23 08:41:12;;;;;;;;;46.75;40.25;;;;;6.20;100.00;102888.72;5103503;27;45302;-82
2023/01/23 08:43:40;;;;;;;;;44.50;37.25;;;;;6.23;100.00;102883.28;5102073;27;45421;-84
2023/01/23 08:46:05;;;;;;;;;40.25;36.00;;;;;6.25;100.00;102899.00;5102273;27;45411;-83
2023/01/23 08:48:32;;;;;;;;;44.50;39.00;;;;;6.28;100.00;102893.53;5104089;27;46209;-82
2023/01/23 08:51:12;;;;;;;;;40.50;36.50;;;;;6.29;100.00;102900.53;5103720;27;45580;-83
2023/01/23 08:53:38;;;;;;;;;38.50;35.25;;;;;6.31;100.00;102890.69;5085009;27;45277;-84
2023/01/23 08:56:14;;;;;;;;;45.75;38.75;;;;;6.34;100.00;102892.34;5101882;27;45554;-81
2023/01/23 08:58:39;;;;;;;;;47.00;38.75;;;;;6.30;100.00;102895.16;5081405;27;48072;-82
2023/01/23 09:01:09;;;;;;;;;40.00;36.50;;;;;6.36;100.00;102895.72;5081898;27;46104;-82
2023/01/23 09:03:34;;;;;;;;;40.25;36.25;;;;;6.40;100.00;102881.38;5095135;27;45363;-84
2023/01/23 09:06:00;;;;;;;;;48.00;36.25;;;;;6.47;100.00;102884.50;5087795;27;47436;-82
2023/01/23 09:08:26;;;;;;;;;45.50;39.75;;;;;6.51;100.00;102886.00;5111623;27;46671;-83
2023/01/23 09:10:51;;;;;;;;;40.75;35.75;;;;;6.48;100.00;102888.84;5083517;27;45365;-82
2023/01/23 09:13:18;;;;;;;;;51.75;42.75;;;;;6.52;100.00;102887.69;5103501;27;45376;-82
2023/01/23 09:15:44;;;;;;;;;43.25;36.50;;;;;6.54;100.00;102886.69;5102047;27;45445;-82
2023/01/23 09:18:09;;;;;;;;;36.25;33.00;;;;;6.53;100.00;102895.53;5084408;27;47179;-82
2023/01/23 09:20:46;;;;;;;;;37.25;35.00;;;;;6.49;100.00;102890.56;5083776;27;45858;-82
2023/01/23 09:23:11;;;;;;;;;39.50;33.50;;;;;6.52;100.00;102901.75;5097088;27;45440;-82
2023/01/23 09:25:36;;;;;;;;;80.25;60.25;;;;;6.53;100.00;102911.38;5082755;27;45391;-82
2023/01/23 09:28:23;;;;;;;;;43.00;38.00;;;;;6.61;100.00;102902.16;5107147;27;46119;-82
2023/01/23 09:30:49;;;;;;;;;60.25;49.50;;;;;6.65;100.00;102920.34;5097617;27;45390;-83
2023/01/23 09:33:15;;;;;;;;;48.75;40.50;;;;;6.67;100.00;102918.47;5097330;27;45469;-82
2023/01/23 09:35:41;;;;;;;;;45.00;39.25;;;;;6.70;100.00;102922.72;5079244;27;47232;-82
2023/01/23 09:45:55;;;;;;;;;36.50;36.00;;;;;6.73;100.00;102917.22;4977060;28;45572;-84
2023/01/23 09:48:43;;;;;;;;;35.25;34.00;;;;;6.68;100.00;102946.59;4959632;28;46157;-82
2023/01/23 09:51:24;;;;;;;;;36.00;33.50;;;;;6.51;100.00;102923.00;5031689;28;45979;-84
2023/01/23 09:54:50;;;;;;;;;36.75;34.00;;;;;6.52;100.00;102935.25;5041786;28;44741;-84
2023/01/23 09:57:27;;;;;;;;;42.00;37.50;;;;;6.63;100.00;102951.31;5095676;27;45268;-83
2023/01/23 10:00:09;;;;;;;;;41.50;37.50;;;;;6.95;100.00;102959.03;5081120;27;47452;-82
2023/01/23 10:10:06;;;;;;;;;40.00;35.50;;;;;6.65;100.00;102930.91;5079542;28;45313;-84
2023/01/23 10:13:02;;;;;;;;;38.75;33.50;;;;;6.73;100.00;102948.94;5061067;28;46273;-84
2023/01/23 10:15:59;;;;;;;;;42.50;36.25;;;;;6.73;100.00;102954.22;5076568;28;46110;-80
2023/01/23 10:19:08;;;;;;;;;38.00;33.50;;;;;6.70;100.00;102959.72;5058860;28;45377;-83
2023/01/23 10:22:36;;;;;;;;;;;;;;;;;;;;;
2023/01/23 10:28:42;;;;;;;;;40.25;36.00;;;;;6.37;100.00;102937.88;5050396;28;46898;-84
2023/01/23 10:41:25;;;;;;;;;34.25;32.50;;;;;6.39;100.00;102943.06;5074061;28;45391;-84
2023/01/23 10:44:29;;;;;;;;;38.25;32.25;;;;;6.33;100.00;102928.44;5072736;27;45284;-85
2023/01/23 10:51:08;;;;;;;;;40.75;38.00;;;;;6.50;100.00;102930.06;4980368;28;45478;-84
2023/01/23 10:53:34;;;;;;;;;38.75;34.25;;;;;6.60;100.00;102925.06;4985966;28;48119;-88
2023/01/23 10:56:00;;;;;;;;;35.25;30.50;;;;;6.71;100.00;102932.34;5068431;28;45307;-84
2023/01/23 10:58:36;;;;;;;;;30.25;28.00;;;;;6.74;100.00;102926.03;5078948;28;45330;-85
2023/01/23 11:01:03;;;;;;;;;28.25;27.00;;;;;6.69;100.00;102921.88;5063766;28;46255;-83
2023/01/23 11:03:28;;;;;;;;;27.00;26.00;;;;;6.83;100.00;102936.03;5082391;28;46853;-85
2023/01/23 11:06:05;;;;;;;;;37.75;34.50;;;;;6.70;100.00;102935.91;5098480;27;45217;-84
2023/01/23 11:08:37;;;;;;;;;35.25;31.00;;;;;6.64;100.00;102920.44;5084687;27;45362;-83
2023/01/23 11:11:14;;;;;;;;;31.50;26.00;;;;;6.71;100.00;102923.56;5102748;27;45228;-81
2023/01/23 11:14:23;;;;;;;;;32.25;28.50;;;;;6.68;100.00;102925.44;5102498;27;45528;-80
2023/01/23 11:17:16;;;;;;;;;25.00;21.75;;;;;6.61;100.00;102916.19;5102594;27;45337;-81
2023/01/23 11:19:44;;;;;;;;;30.50;29.25;;;;;6.62;100.00;102911.78;5102970;27;45341;-81
2023/01/23 11:22:36;;;;;;;;;31.00;26.00;;;;;6.56;100.00;102911.19;5083853;27;45898;-80
2023/01/23 11:25:36;;;;;;;;;32.50;30.50;;;;;6.61;100.00;102923.28;5102089;27;46698;-79
2023/01/23 11:28:18;;;;;;;;;30.75;26.00;;;;;6.62;100.00;102920.56;5083972;27;45526;-79
2023/01/23 11:30:48;;;;;;;;;39.00;34.25;;;;;6.65;100.00;102920.34;5102819;27;45467;-79
2023/01/23 11:33:41;;;;;;;;;29.50;26.25;;;;;6.65;100.00;102907.13;5102367;27;45508;-78
2023/01/23 11:36:16;;;;;;;;;29.25;27.25;;;;;6.63;100.00;102902.91;5102197;27;45990;-79
2023/01/23 11:38:50;;;;;;;;;29.25;28.75;;;;;6.67;100.00;102878.81;5102206;27;45354;-80
2023/01/23 11:41:15;;;;;;;;;41.50;36.75;;;;;6.61;100.00;102866.00;5102252;27;45377;-78
2023/01/23 11:43:41;;;;;;;;;28.50;28.00;;;;;6.61;100.00;102866.00;5102011;27;45215;-79
2023/01/23 11:46:06;;;;;;;;;38.75;30.75;;;;;6.67;100.00;102876.19;5070948;27;47432;-83
2023/01/23 11:48:38;;;;;;;;;31.25;27.25;;;;;6.69;100.00;102879.59;5096085;27;45282;-84
2023/01/23 11:51:18;;;;;;;;;30.75;26.50;;;;;6.64;100.00;102860.53;5093749;27;45488;-84
2023/01/23 11:54:01;;;;;;;;;25.25;24.50;;;;;6.66;100.00;102874.50;5093155;27;45480;-80
2023/01/23 11:56:26;;;;;;;;;35.00;27.50;;;;;6.64;100.00;102875.50;5082635;27;46269;-80